sensor_id;sensor_type;location;lat;lon;timestamp;P1;durP1;ratioP1;P2;durP2;ratioP2
21243;SDS011;10780;50.942;4.028;2022-12-11T00:00:17;24.45;;;12.75;;
21243;SDS011;10780;50.942;4.028;2022-12-11T00:02:43;23.55;;;13.85;;
21243;SDS011;10780;50.942;4.028;2022-12-11T00:05:09;29.75;;;14.65;;
21243;SDS011;10780;50.942;4.028;2022-12-11T00:07:35;28.75;;;13.85;;
21243;SDS011;10780;50.942;4.028;2022-12-11T00:10:00;30.10;;;14.48;;
21243;SDS011;10780;50.942;4.028;2022-12-11T00:12:26;30.08;;;15.75;;
21243;SDS011;10780;50.942;4.028;2022-12-11T00:14:54;24.83;;;13.52;;
21243;SDS011;10780;50.942;4.028;2022-12-11T00:17:19;29.08;;;13.95;;
21243;SDS011;10780;50.942;4.028;2022-12-11T00:19:45;33.50;;;15.27;;
21243;SDS011;10780;50.942;4.028;2022-12-11T00:22:11;27.50;;;13.68;;
21243;SDS011;10780;50.942;4.028;2022-12-11T00:24:36;30.50;;;14.48;;
21243;SDS011;10780;50.942;4.028;2022-12-11T00:27:02;28.58;;;14.50;;
21243;SDS011;10780;50.942;4.028;2022-12-11T00:29:28;29.75;;;14.18;;
21243;SDS011;10780;50.942;4.028;2022-12-11T00:31:53;27.08;;;13.88;;
21243;SDS011;10780;50.942;4.028;2022-12-11T00:34:19;32.10;;;14.73;;
21243;SDS011;10780;50.942;4.028;2022-12-11T00:36:44;28.02;;;14.35;;
21243;SDS011;10780;50.942;4.028;2022-12-11T00:39:10;26.48;;;14.13;;
21243;SDS011;10780;50.942;4.028;2022-12-11T00:41:36;27.98;;;14.05;;
21243;SDS011;10780;50.942;4.028;2022-12-11T00:44:01;25.55;;;13.60;;
21243;SDS011;10780;50.942;4.028;2022-12-11T00:46:27;29.33;;;14.02;;
21243;SDS011;10780;50.942;4.028;2022-12-11T00:48:53;29.52;;;14.23;;
21243;SDS011;10780;50.942;4.028;2022-12-11T00:51:18;29.63;;;14.80;;
21243;SDS011;10780;50.942;4.028;2022-12-11T00:53:44;26.92;;;13.43;;
21243;SDS011;10780;50.942;4.028;2022-12-11T00:56:10;30.00;;;13.77;;
21243;SDS011;10780;50.942;4.028;2022-12-11T00:58:38;28.33;;;13.57;;
21243;SDS011;10780;50.942;4.028;2022-12-11T01:01:08;27.05;;;13.48;;
21243;SDS011;10780;50.942;4.028;2022-12-11T01:03:36;27.63;;;13.70;;
21243;SDS011;10780;50.942;4.028;2022-12-11T01:06:02;27.05;;;13.70;;
21243;SDS011;10780;50.942;4.028;2022-12-11T01:08:28;29.65;;;13.80;;
21243;SDS011;10780;50.942;4.028;2022-12-11T01:13:49;27.75;;;13.38;;
21243;SDS011;10780;50.942;4.028;2022-12-11T01:16:14;30.13;;;13.88;;
21243;SDS011;10780;50.942;4.028;2022-12-11T01:18:40;33.05;;;14.30;;
21243;SDS011;10780;50.942;4.028;2022-12-11T01:21:07;31.83;;;15.00;;
21243;SDS011;10780;50.942;4.028;2022-12-11T01:23:35;30.95;;;14.85;;
21243;SDS011;10780;50.942;4.028;2022-12-11T01:26:05;34.20;;;14.63;;
21243;SDS011;10780;50.942;4.028;2022-12-11T01:28:32;29.65;;;14.73;;
21243;SDS011;10780;50.942;4.028;2022-12-11T01:30:58;31.40;;;15.23;;
21243;SDS011;10780;50.942;4.028;2022-12-11T01:33:24;27.65;;;14.13;;
21243;SDS011;10780;50.942;4.028;2022-12-11T01:35:49;32.13;;;14.45;;
21243;SDS011;10780;50.942;4.028;2022-12-11T01:38:15;33.15;;;14.85;;
21243;SDS011;10780;50.942;4.028;2022-12-11T01:40:45;32.75;;;15.15;;
21243;SDS011;10780;50.942;4.028;2022-12-11T01:43:11;30.70;;;14.70;;
21243;SDS011;10780;50.942;4.028;2022-12-11T01:45:41;34.40;;;14.68;;
21243;SDS011;10780;50.942;4.028;2022-12-11T01:48:10;30.20;;;14.50;;
21243;SDS011;10780;50.942;4.028;2022-12-11T01:50:43;34.05;;;15.02;;
21243;SDS011;10780;50.942;4.028;2022-12-11T01:53:12;31.85;;;14.10;;
21243;SDS011;10780;50.942;4.028;2022-12-11T01:55:42;31.73;;;14.20;;
21243;SDS011;10780;50.942;4.028;2022-12-11T01:58:10;32.72;;;14.07;;
21243;SDS011;10780;50.942;4.028;2022-12-11T02:00:36;36.42;;;15.48;;
21243;SDS011;10780;50.942;4.028;2022-12-11T02:03:01;33.60;;;16.17;;
21243;SDS011;10780;50.942;4.028;2022-12-11T02:05:27;34.20;;;15.27;;
21243;SDS011;10780;50.942;4.028;2022-12-11T02:07:54;29.95;;;14.52;;
21243;SDS011;10780;50.942;4.028;2022-12-11T02:10:23;33.22;;;15.13;;
21243;SDS011;10780;50.942;4.028;2022-12-11T02:13:10;28.48;;;14.05;;
21243;SDS011;10780;50.942;4.028;2022-12-11T02:15:43;32.50;;;13.90;;
21243;SDS011;10780;50.942;4.028;2022-12-11T02:18:25;31.25;;;14.45;;
21243;SDS011;10780;50.942;4.028;2022-12-11T02:21:11;30.95;;;15.20;;
21243;SDS011;10780;50.942;4.028;2022-12-11T02:29:25;32.33;;;14.02;;
21243;SDS011;10780;50.942;4.028;2022-12-11T02:32:10;29.00;;;13.65;;
21243;SDS011;10780;50.942;4.028;2022-12-11T02:37:45;35.88;;;14.52;;
21243;SDS011;10780;50.942;4.028;2022-12-11T02:40:13;31.83;;;14.40;;
21243;SDS011;10780;50.942;4.028;2022-12-11T02:42:43;31.08;;;13.48;;
21243;SDS011;10780;50.942;4.028;2022-12-11T02:45:12;31.90;;;14.18;;
21243;SDS011;10780;50.942;4.028;2022-12-11T02:47:39;24.95;;;12.48;;
21243;SDS011;10780;50.942;4.028;2022-12-11T02:50:08;28.58;;;13.68;;
21243;SDS011;10780;50.942;4.028;2022-12-11T02:52:37;32.17;;;13.35;;
21243;SDS011;10780;50.942;4.028;2022-12-11T02:55:06;28.08;;;13.27;;
21243;SDS011;10780;50.942;4.028;2022-12-11T02:57:37;33.20;;;14.65;;
21243;SDS011;10780;50.942;4.028;2022-12-11T03:00:19;30.85;;;13.60;;
21243;SDS011;10780;50.942;4.028;2022-12-11T03:02:45;30.30;;;14.20;;
21243;SDS011;10780;50.942;4.028;2022-12-11T03:05:11;30.05;;;13.90;;
21243;SDS011;10780;50.942;4.028;2022-12-11T03:07:39;30.00;;;13.80;;
21243;SDS011;10780;50.942;4.028;2022-12-11T03:10:08;30.95;;;14.55;;
21243;SDS011;10780;50.942;4.028;2022-12-11T03:12:39;32.00;;;14.35;;
21243;SDS011;10780;50.942;4.028;2022-12-11T03:15:08;30.55;;;14.50;;
21243;SDS011;10780;50.942;4.028;2022-12-11T03:30:35;31.02;;;14.43;;
21243;SDS011;10780;50.942;4.028;2022-12-11T03:33:36;29.77;;;14.73;;
21243;SDS011;10780;50.942;4.028;2022-12-11T03:35:58;35.40;;;15.18;;
21243;SDS011;10780;50.942;4.028;2022-12-11T03:38:30;31.48;;;15.65;;
21243;SDS011;10780;50.942;4.028;2022-12-11T03:41:03;29.92;;;14.60;;
21243;SDS011;10780;50.942;4.028;2022-12-11T03:43:31;34.47;;;15.40;;
21243;SDS011;10780;50.942;4.028;2022-12-11T03:45:58;35.95;;;17.33;;
21243;SDS011;10780;50.942;4.028;2022-12-11T03:48:26;31.15;;;15.50;;
21243;SDS011;10780;50.942;4.028;2022-12-11T03:50:56;35.20;;;16.75;;
21243;SDS011;10780;50.942;4.028;2022-12-11T03:53:24;35.25;;;16.15;;
21243;SDS011;10780;50.942;4.028;2022-12-11T03:55:50;39.65;;;17.05;;
21243;SDS011;10780;50.942;4.028;2022-12-11T03:58:16;37.90;;;16.23;;
21243;SDS011;10780;50.942;4.028;2022-12-11T04:00:42;34.10;;;16.00;;
21243;SDS011;10780;50.942;4.028;2022-12-11T04:03:08;34.33;;;17.05;;
21243;SDS011;10780;50.942;4.028;2022-12-11T04:05:36;36.83;;;17.20;;
21243;SDS011;10780;50.942;4.028;2022-12-11T04:08:02;37.80;;;16.83;;
21243;SDS011;10780;50.942;4.028;2022-12-11T04:10:28;38.42;;;17.05;;
21243;SDS011;10780;50.942;4.028;2022-12-11T04:12:54;34.45;;;16.63;;
21243;SDS011;10780;50.942;4.028;2022-12-11T04:15:19;36.03;;;16.70;;
21243;SDS011;10780;50.942;4.028;2022-12-11T04:17:45;34.50;;;16.23;;
21243;SDS011;10780;50.942;4.028;2022-12-11T04:20:29;38.45;;;17.23;;
21243;SDS011;10780;50.942;4.028;2022-12-11T04:23:14;35.13;;;15.98;;
21243;SDS011;10780;50.942;4.028;2022-12-11T04:26:08;35.38;;;17.48;;
21243;SDS011;10780;50.942;4.028;2022-12-11T04:28:38;31.02;;;16.13;;
21243;SDS011;10780;50.942;4.028;2022-12-11T04:31:05;35.00;;;16.15;;
21243;SDS011;10780;50.942;4.028;2022-12-11T04:33:31;32.13;;;15.35;;
21243;SDS011;10780;50.942;4.028;2022-12-11T04:35:57;32.08;;;16.05;;
21243;SDS011;10780;50.942;4.028;2022-12-11T04:38:23;38.35;;;16.38;;
21243;SDS011;10780;50.942;4.028;2022-12-11T04:40:49;32.35;;;16.60;;
21243;SDS011;10780;50.942;4.028;2022-12-11T04:43:20;31.70;;;15.25;;
21243;SDS011;10780;50.942;4.028;2022-12-11T04:45:46;32.42;;;15.40;;
21243;SDS011;10780;50.942;4.028;2022-12-11T04:48:12;37.45;;;16.58;;
21243;SDS011;10780;50.942;4.028;2022-12-11T04:50:37;34.80;;;16.05;;
21243;SDS011;10780;50.942;4.028;2022-12-11T04:53:03;38.65;;;17.25;;
21243;SDS011;10780;50.942;4.028;2022-12-11T04:55:28;31.05;;;15.77;;
21243;SDS011;10780;50.942;4.028;2022-12-11T04:57:54;38.80;;;16.25;;
21243;SDS011;10780;50.942;4.028;2022-12-11T05:00:19;37.85;;;17.02;;
21243;SDS011;10780;50.942;4.028;2022-12-11T05:02:45;37.75;;;17.02;;
21243;SDS011;10780;50.942;4.028;2022-12-11T05:05:11;37.92;;;17.13;;
21243;SDS011;10780;50.942;4.028;2022-12-11T05:07:36;36.08;;;17.48;;
21243;SDS011;10780;50.942;4.028;2022-12-11T05:10:03;38.72;;;17.95;;
21243;SDS011;10780;50.942;4.028;2022-12-11T05:12:30;38.20;;;17.27;;
21243;SDS011;10780;50.942;4.028;2022-12-11T05:14:56;38.55;;;18.08;;
21243;SDS011;10780;50.942;4.028;2022-12-11T05:17:21;34.58;;;17.27;;
21243;SDS011;10780;50.942;4.028;2022-12-11T05:19:47;36.78;;;17.50;;
21243;SDS011;10780;50.942;4.028;2022-12-11T05:22:14;39.08;;;18.85;;
21243;SDS011;10780;50.942;4.028;2022-12-11T05:24:40;40.17;;;18.50;;
21243;SDS011;10780;50.942;4.028;2022-12-11T05:27:05;43.13;;;18.10;;
21243;SDS011;10780;50.942;4.028;2022-12-11T05:29:31;41.88;;;19.17;;
21243;SDS011;10780;50.942;4.028;2022-12-11T05:32:00;39.92;;;18.50;;
21243;SDS011;10780;50.942;4.028;2022-12-11T05:34:25;44.47;;;19.30;;
21243;SDS011;10780;50.942;4.028;2022-12-11T05:36:51;40.85;;;17.98;;
21243;SDS011;10780;50.942;4.028;2022-12-11T05:39:16;47.28;;;20.83;;
21243;SDS011;10780;50.942;4.028;2022-12-11T05:41:42;42.17;;;20.42;;
21243;SDS011;10780;50.942;4.028;2022-12-11T05:44:10;43.42;;;19.90;;
21243;SDS011;10780;50.942;4.028;2022-12-11T05:46:37;42.92;;;19.83;;
21243;SDS011;10780;50.942;4.028;2022-12-11T05:49:03;38.70;;;18.85;;
21243;SDS011;10780;50.942;4.028;2022-12-11T05:51:30;42.28;;;20.58;;
21243;SDS011;10780;50.942;4.028;2022-12-11T05:53:58;41.95;;;18.42;;
21243;SDS011;10780;50.942;4.028;2022-12-11T05:56:25;50.72;;;20.00;;
21243;SDS011;10780;50.942;4.028;2022-12-11T05:58:53;40.47;;;19.25;;
21243;SDS011;10780;50.942;4.028;2022-12-11T06:01:21;43.45;;;19.55;;
21243;SDS011;10780;50.942;4.028;2022-12-11T06:03:48;45.53;;;20.42;;
21243;SDS011;10780;50.942;4.028;2022-12-11T06:06:14;40.53;;;19.30;;
21243;SDS011;10780;50.942;4.028;2022-12-11T06:08:40;48.60;;;20.83;;
21243;SDS011;10780;50.942;4.028;2022-12-11T06:11:06;44.45;;;20.42;;
21243;SDS011;10780;50.942;4.028;2022-12-11T06:13:32;50.53;;;21.80;;
21243;SDS011;10780;50.942;4.028;2022-12-11T06:15:59;50.08;;;20.83;;
21243;SDS011;10780;50.942;4.028;2022-12-11T06:18:28;45.13;;;20.55;;
21243;SDS011;10780;50.942;4.028;2022-12-11T06:20:53;45.33;;;20.52;;
21243;SDS011;10780;50.942;4.028;2022-12-11T06:23:19;49.45;;;21.42;;
21243;SDS011;10780;50.942;4.028;2022-12-11T06:25:45;46.13;;;21.67;;
21243;SDS011;10780;50.942;4.028;2022-12-11T06:28:10;49.58;;;20.67;;
21243;SDS011;10780;50.942;4.028;2022-12-11T06:30:36;50.13;;;21.67;;
21243;SDS011;10780;50.942;4.028;2022-12-11T06:33:02;49.67;;;22.05;;
21243;SDS011;10780;50.942;4.028;2022-12-11T06:35:28;47.40;;;20.85;;
21243;SDS011;10780;50.942;4.028;2022-12-11T06:37:54;45.67;;;20.50;;
21243;SDS011;10780;50.942;4.028;2022-12-11T06:40:19;49.95;;;21.63;;
21243;SDS011;10780;50.942;4.028;2022-12-11T06:42:45;49.22;;;21.27;;
21243;SDS011;10780;50.942;4.028;2022-12-11T06:45:11;50.58;;;21.15;;
21243;SDS011;10780;50.942;4.028;2022-12-11T06:47:36;45.53;;;21.23;;
21243;SDS011;10780;50.942;4.028;2022-12-11T06:50:02;44.97;;;19.95;;
21243;SDS011;10780;50.942;4.028;2022-12-11T06:52:28;46.00;;;19.52;;
21243;SDS011;10780;50.942;4.028;2022-12-11T06:54:54;44.05;;;20.33;;
21243;SDS011;10780;50.942;4.028;2022-12-11T06:57:20;43.47;;;20.38;;
21243;SDS011;10780;50.942;4.028;2022-12-11T06:59:46;46.88;;;20.80;;
21243;SDS011;10780;50.942;4.028;2022-12-11T07:02:13;39.97;;;18.55;;
21243;SDS011;10780;50.942;4.028;2022-12-11T07:04:39;41.88;;;20.88;;
21243;SDS011;10780;50.942;4.028;2022-12-11T07:07:06;48.63;;;20.90;;
21243;SDS011;10780;50.942;4.028;2022-12-11T07:09:33;38.38;;;17.55;;
21243;SDS011;10780;50.942;4.028;2022-12-11T07:12:00;39.63;;;17.63;;
21243;SDS011;10780;50.942;4.028;2022-12-11T07:14:28;39.90;;;18.75;;
21243;SDS011;10780;50.942;4.028;2022-12-11T07:16:54;39.17;;;18.73;;
21243;SDS011;10780;50.942;4.028;2022-12-11T07:19:20;38.50;;;18.05;;
21243;SDS011;10780;50.942;4.028;2022-12-11T07:21:46;39.15;;;17.63;;
21243;SDS011;10780;50.942;4.028;2022-12-11T07:24:11;36.88;;;18.05;;
21243;SDS011;10780;50.942;4.028;2022-12-11T07:26:37;37.70;;;18.23;;
21243;SDS011;10780;50.942;4.028;2022-12-11T07:29:03;42.38;;;17.83;;
21243;SDS011;10780;50.942;4.028;2022-12-11T07:31:29;47.75;;;19.10;;
21243;SDS011;10780;50.942;4.028;2022-12-11T07:33:58;42.13;;;17.98;;
21243;SDS011;10780;50.942;4.028;2022-12-11T07:36:26;40.13;;;19.05;;
21243;SDS011;10780;50.942;4.028;2022-12-11T07:38:53;40.78;;;18.83;;
21243;SDS011;10780;50.942;4.028;2022-12-11T07:41:18;37.28;;;16.95;;
21243;SDS011;10780;50.942;4.028;2022-12-11T07:43:44;39.55;;;18.35;;
21243;SDS011;10780;50.942;4.028;2022-12-11T07:46:14;40.45;;;18.45;;
21243;SDS011;10780;50.942;4.028;2022-12-11T07:48:42;36.85;;;17.38;;
21243;SDS011;10780;50.942;4.028;2022-12-11T07:51:14;42.28;;;18.88;;
21243;SDS011;10780;50.942;4.028;2022-12-11T07:53:44;36.08;;;17.73;;
21243;SDS011;10780;50.942;4.028;2022-12-11T07:56:11;39.60;;;17.88;;
21243;SDS011;10780;50.942;4.028;2022-12-11T07:58:38;35.33;;;16.80;;
21243;SDS011;10780;50.942;4.028;2022-12-11T08:01:04;39.03;;;17.17;;
21243;SDS011;10780;50.942;4.028;2022-12-11T08:03:35;43.03;;;18.92;;
21243;SDS011;10780;50.942;4.028;2022-12-11T08:06:01;39.72;;;18.40;;
21243;SDS011;10780;50.942;4.028;2022-12-11T08:08:26;42.50;;;18.73;;
21243;SDS011;10780;50.942;4.028;2022-12-11T08:10:52;41.47;;;17.98;;
21243;SDS011;10780;50.942;4.028;2022-12-11T08:13:17;42.83;;;18.75;;
21243;SDS011;10780;50.942;4.028;2022-12-11T08:15:43;36.50;;;17.58;;
21243;SDS011;10780;50.942;4.028;2022-12-11T08:18:08;38.40;;;16.77;;
21243;SDS011;10780;50.942;4.028;2022-12-11T08:20:36;39.63;;;18.83;;
21243;SDS011;10780;50.942;4.028;2022-12-11T08:23:03;40.67;;;18.40;;
21243;SDS011;10780;50.942;4.028;2022-12-11T08:25:29;41.50;;;18.27;;
21243;SDS011;10780;50.942;4.028;2022-12-11T08:27:54;45.50;;;19.65;;
21243;SDS011;10780;50.942;4.028;2022-12-11T08:30:20;41.80;;;18.85;;
21243;SDS011;10780;50.942;4.028;2022-12-11T08:32:45;44.42;;;18.45;;
21243;SDS011;10780;50.942;4.028;2022-12-11T08:35:11;40.30;;;18.92;;
21243;SDS011;10780;50.942;4.028;2022-12-11T08:37:37;41.95;;;18.98;;
21243;SDS011;10780;50.942;4.028;2022-12-11T08:40:02;42.00;;;19.38;;
21243;SDS011;10780;50.942;4.028;2022-12-11T08:42:28;44.72;;;20.90;;
21243;SDS011;10780;50.942;4.028;2022-12-11T08:44:54;39.50;;;18.63;;
21243;SDS011;10780;50.942;4.028;2022-12-11T08:47:19;43.83;;;18.98;;
21243;SDS011;10780;50.942;4.028;2022-12-11T08:49:45;41.03;;;18.98;;
21243;SDS011;10780;50.942;4.028;2022-12-11T08:52:11;42.30;;;18.13;;
21243;SDS011;10780;50.942;4.028;2022-12-11T08:54:36;39.55;;;18.67;;
21243;SDS011;10780;50.942;4.028;2022-12-11T08:57:02;43.78;;;18.75;;
21243;SDS011;10780;50.942;4.028;2022-12-11T08:59:28;40.47;;;17.95;;
21243;SDS011;10780;50.942;4.028;2022-12-11T09:01:54;41.92;;;17.90;;
21243;SDS011;10780;50.942;4.028;2022-12-11T09:04:20;38.28;;;17.40;;
21243;SDS011;10780;50.942;4.028;2022-12-11T09:06:46;44.60;;;18.75;;
21243;SDS011;10780;50.942;4.028;2022-12-11T09:09:12;41.20;;;17.67;;
21243;SDS011;10780;50.942;4.028;2022-12-11T09:11:38;37.83;;;18.17;;
21243;SDS011;10780;50.942;4.028;2022-12-11T09:14:04;42.85;;;18.67;;
21243;SDS011;10780;50.942;4.028;2022-12-11T09:16:30;40.33;;;18.20;;
21243;SDS011;10780;50.942;4.028;2022-12-11T09:18:56;44.28;;;18.83;;
21243;SDS011;10780;50.942;4.028;2022-12-11T09:21:24;39.08;;;17.90;;
21243;SDS011;10780;50.942;4.028;2022-12-11T09:23:52;46.58;;;19.27;;
21243;SDS011;10780;50.942;4.028;2022-12-11T09:26:18;40.42;;;17.70;;
21243;SDS011;10780;50.942;4.028;2022-12-11T09:28:44;42.97;;;19.90;;
21243;SDS011;10780;50.942;4.028;2022-12-11T09:31:12;46.45;;;19.67;;
21243;SDS011;10780;50.942;4.028;2022-12-11T09:33:39;43.40;;;17.98;;
21243;SDS011;10780;50.942;4.028;2022-12-11T09:36:06;39.35;;;17.58;;
21243;SDS011;10780;50.942;4.028;2022-12-11T09:38:32;43.25;;;19.30;;
21243;SDS011;10780;50.942;4.028;2022-12-11T09:40:59;42.38;;;17.45;;
21243;SDS011;10780;50.942;4.028;2022-12-11T09:43:38;43.00;;;18.55;;
21243;SDS011;10780;50.942;4.028;2022-12-11T09:46:10;40.53;;;18.88;;
21243;SDS011;10780;50.942;4.028;2022-12-11T09:48:39;45.95;;;19.73;;
21243;SDS011;10780;50.942;4.028;2022-12-11T09:51:14;42.90;;;19.33;;
21243;SDS011;10780;50.942;4.028;2022-12-11T09:53:48;39.95;;;17.75;;
21243;SDS011;10780;50.942;4.028;2022-12-11T09:56:21;43.08;;;18.65;;
21243;SDS011;10780;50.942;4.028;2022-12-11T10:04:10;44.65;;;18.58;;
21243;SDS011;10780;50.942;4.028;2022-12-11T10:17:50;40.08;;;17.73;;
21243;SDS011;10780;50.942;4.028;2022-12-11T10:23:08;33.40;;;16.05;;
21243;SDS011;10780;50.942;4.028;2022-12-11T10:25:45;37.03;;;17.48;;
21243;SDS011;10780;50.942;4.028;2022-12-11T10:28:18;38.08;;;16.77;;
21243;SDS011;10780;50.942;4.028;2022-12-11T10:30:50;36.72;;;17.92;;
21243;SDS011;10780;50.942;4.028;2022-12-11T10:35:58;37.75;;;16.90;;
21243;SDS011;10780;50.942;4.028;2022-12-11T10:38:28;32.75;;;15.38;;
21243;SDS011;10780;50.942;4.028;2022-12-11T10:41:09;33.42;;;15.25;;
21243;SDS011;10780;50.942;4.028;2022-12-11T10:43:38;35.55;;;15.43;;
21243;SDS011;10780;50.942;4.028;2022-12-11T10:46:11;34.53;;;15.30;;
21243;SDS011;10780;50.942;4.028;2022-12-11T10:51:32;37.30;;;16.88;;
21243;SDS011;10780;50.942;4.028;2022-12-11T10:54:02;35.75;;;16.85;;
21243;SDS011;10780;50.942;4.028;2022-12-11T10:56:48;36.50;;;17.10;;
21243;SDS011;10780;50.942;4.028;2022-12-11T10:59:34;35.10;;;16.30;;
21243;SDS011;10780;50.942;4.028;2022-12-11T11:02:18;33.67;;;15.60;;
21243;SDS011;10780;50.942;4.028;2022-12-11T11:04:48;35.10;;;15.55;;
21243;SDS011;10780;50.942;4.028;2022-12-11T11:07:22;33.13;;;14.95;;
21243;SDS011;10780;50.942;4.028;2022-12-11T11:10:03;32.50;;;14.27;;
21243;SDS011;10780;50.942;4.028;2022-12-11T11:12:39;33.40;;;14.35;;
21243;SDS011;10780;50.942;4.028;2022-12-11T11:15:17;35.28;;;14.55;;
21243;SDS011;10780;50.942;4.028;2022-12-11T11:17:52;37.03;;;16.20;;
21243;SDS011;10780;50.942;4.028;2022-12-11T11:20:26;38.92;;;16.20;;
21243;SDS011;10780;50.942;4.028;2022-12-11T11:22:57;30.73;;;14.95;;
21243;SDS011;10780;50.942;4.028;2022-12-11T11:25:26;33.15;;;15.48;;
21243;SDS011;10780;50.942;4.028;2022-12-11T11:27:55;35.92;;;16.38;;
21243;SDS011;10780;50.942;4.028;2022-12-11T11:32:55;30.02;;;14.52;;
21243;SDS011;10780;50.942;4.028;2022-12-11T11:35:52;35.55;;;15.90;;
21243;SDS011;10780;50.942;4.028;2022-12-11T11:38:18;29.17;;;13.48;;
21243;SDS011;10780;50.942;4.028;2022-12-11T11:40:48;25.45;;;12.30;;
21243;SDS011;10780;50.942;4.028;2022-12-11T11:43:28;27.48;;;13.48;;
21243;SDS011;10780;50.942;4.028;2022-12-11T11:46:36;22.50;;;11.82;;
21243;SDS011;10780;50.942;4.028;2022-12-11T11:52:06;32.47;;;14.43;;
21243;SDS011;10780;50.942;4.028;2022-12-11T11:54:33;28.60;;;13.38;;
21243;SDS011;10780;50.942;4.028;2022-12-11T12:00:14;32.05;;;14.30;;
21243;SDS011;10780;50.942;4.028;2022-12-11T12:02:50;35.20;;;15.27;;
21243;SDS011;10780;50.942;4.028;2022-12-11T12:05:26;32.40;;;15.13;;
21243;SDS011;10780;50.942;4.028;2022-12-11T12:10:43;34.70;;;15.45;;
21243;SDS011;10780;50.942;4.028;2022-12-11T12:15:53;34.60;;;14.93;;
21243;SDS011;10780;50.942;4.028;2022-12-11T12:21:14;34.17;;;16.15;;
21243;SDS011;10780;50.942;4.028;2022-12-11T12:27:27;32.38;;;15.32;;
21243;SDS011;10780;50.942;4.028;2022-12-11T12:32:15;34.92;;;16.15;;
21243;SDS011;10780;50.942;4.028;2022-12-11T12:35:03;35.90;;;15.90;;
21243;SDS011;10780;50.942;4.028;2022-12-11T12:37:49;32.63;;;14.95;;
21243;SDS011;10780;50.942;4.028;2022-12-11T12:46:20;35.38;;;15.35;;
21243;SDS011;10780;50.942;4.028;2022-12-11T12:49:16;34.55;;;15.07;;
21243;SDS011;10780;50.942;4.028;2022-12-11T12:52:03;36.35;;;16.17;;
21243;SDS011;10780;50.942;4.028;2022-12-11T12:54:31;32.03;;;16.13;;
21243;SDS011;10780;50.942;4.028;2022-12-11T12:56:59;38.15;;;16.63;;
21243;SDS011;10780;50.942;4.028;2022-12-11T12:59:28;38.55;;;17.08;;
21243;SDS011;10780;50.942;4.028;2022-12-11T13:01:55;39.40;;;16.10;;
21243;SDS011;10780;50.942;4.028;2022-12-11T13:04:28;31.85;;;15.38;;
21243;SDS011;10780;50.942;4.028;2022-12-11T13:06:58;35.03;;;17.10;;
21243;SDS011;10780;50.942;4.028;2022-12-11T13:09:40;36.33;;;16.42;;
21243;SDS011;10780;50.942;4.028;2022-12-11T13:12:13;37.80;;;17.75;;
21243;SDS011;10780;50.942;4.028;2022-12-11T13:14:39;33.17;;;16.55;;
21243;SDS011;10780;50.942;4.028;2022-12-11T13:17:19;33.72;;;16.60;;
21243;SDS011;10780;50.942;4.028;2022-12-11T13:19:50;34.25;;;17.33;;
21243;SDS011;10780;50.942;4.028;2022-12-11T13:22:33;33.03;;;15.90;;
21243;SDS011;10780;50.942;4.028;2022-12-11T13:25:00;34.58;;;16.48;;
21243;SDS011;10780;50.942;4.028;2022-12-11T13:27:40;28.05;;;14.85;;
21243;SDS011;10780;50.942;4.028;2022-12-11T13:33:21;29.65;;;14.55;;
21243;SDS011;10780;50.942;4.028;2022-12-11T13:35:28;33.55;;;15.88;;
21243;SDS011;10780;50.942;4.028;2022-12-11T13:37:56;29.02;;;15.30;;
21243;SDS011;10780;50.942;4.028;2022-12-11T13:40:28;30.10;;;14.00;;
21243;SDS011;10780;50.942;4.028;2022-12-11T13:43:02;28.30;;;14.50;;
21243;SDS011;10780;50.942;4.028;2022-12-11T13:45:48;25.67;;;14.52;;
21243;SDS011;10780;50.942;4.028;2022-12-11T13:48:17;29.63;;;14.75;;
21243;SDS011;10780;50.942;4.028;2022-12-11T13:50:47;23.83;;;13.63;;
21243;SDS011;10780;50.942;4.028;2022-12-11T13:53:16;27.13;;;13.63;;
21243;SDS011;10780;50.942;4.028;2022-12-11T13:55:42;26.73;;;13.55;;
21243;SDS011;10780;50.942;4.028;2022-12-11T13:58:18;23.48;;;12.98;;
21243;SDS011;10780;50.942;4.028;2022-12-11T14:03:23;23.35;;;13.43;;
21243;SDS011;10780;50.942;4.028;2022-12-11T14:05:49;22.63;;;13.18;;
21243;SDS011;10780;50.942;4.028;2022-12-11T14:08:16;22.42;;;12.82;;
21243;SDS011;10780;50.942;4.028;2022-12-11T14:10:50;24.80;;;13.05;;
21243;SDS011;10780;50.942;4.028;2022-12-11T14:15:47;23.65;;;13.80;;
21243;SDS011;10780;50.942;4.028;2022-12-11T14:18:19;29.35;;;13.80;;
21243;SDS011;10780;50.942;4.028;2022-12-11T14:20:54;25.83;;;13.63;;
21243;SDS011;10780;50.942;4.028;2022-12-11T14:23:23;26.42;;;13.85;;
21243;SDS011;10780;50.942;4.028;2022-12-11T14:25:55;27.45;;;14.25;;
21243;SDS011;10780;50.942;4.028;2022-12-11T14:28:26;28.45;;;14.65;;
21243;SDS011;10780;50.942;4.028;2022-12-11T14:30:55;28.33;;;13.98;;
21243;SDS011;10780;50.942;4.028;2022-12-11T14:33:30;25.55;;;13.73;;
21243;SDS011;10780;50.942;4.028;2022-12-11T14:35:58;27.77;;;13.10;;
21243;SDS011;10780;50.942;4.028;2022-12-11T14:38:26;26.48;;;15.02;;
21243;SDS011;10780;50.942;4.028;2022-12-11T14:40:57;29.92;;;15.05;;
21243;SDS011;10780;50.942;4.028;2022-12-11T14:43:28;26.52;;;14.25;;
21243;SDS011;10780;50.942;4.028;2022-12-11T14:45:58;28.35;;;15.00;;
21243;SDS011;10780;50.942;4.028;2022-12-11T14:48:28;29.27;;;15.30;;
21243;SDS011;10780;50.942;4.028;2022-12-11T14:51:02;26.25;;;14.75;;
21243;SDS011;10780;50.942;4.028;2022-12-11T14:53:34;29.63;;;14.63;;
21243;SDS011;10780;50.942;4.028;2022-12-11T14:56:16;27.08;;;14.95;;
21243;SDS011;10780;50.942;4.028;2022-12-11T14:58:50;24.48;;;13.95;;
21243;SDS011;10780;50.942;4.028;2022-12-11T15:01:34;23.65;;;13.43;;
21243;SDS011;10780;50.942;4.028;2022-12-11T15:06:31;26.92;;;14.88;;
21243;SDS011;10780;50.942;4.028;2022-12-11T15:09:14;29.63;;;14.07;;
21243;SDS011;10780;50.942;4.028;2022-12-11T15:11:43;26.33;;;14.05;;
21243;SDS011;10780;50.942;4.028;2022-12-11T15:14:10;26.55;;;13.70;;
21243;SDS011;10780;50.942;4.028;2022-12-11T15:16:38;25.98;;;13.48;;
21243;SDS011;10780;50.942;4.028;2022-12-11T15:19:05;27.58;;;14.10;;
21243;SDS011;10780;50.942;4.028;2022-12-11T15:21:40;22.02;;;13.05;;
21243;SDS011;10780;50.942;4.028;2022-12-11T15:24:05;24.48;;;13.15;;
21243;SDS011;10780;50.942;4.028;2022-12-11T15:26:46;25.38;;;13.50;;
21243;SDS011;10780;50.942;4.028;2022-12-11T15:29:32;27.27;;;13.77;;
21243;SDS011;10780;50.942;4.028;2022-12-11T15:32:02;25.92;;;13.75;;
21243;SDS011;10780;50.942;4.028;2022-12-11T15:34:42;25.08;;;14.43;;
21243;SDS011;10780;50.942;4.028;2022-12-11T15:39:53;23.70;;;14.10;;
21243;SDS011;10780;50.942;4.028;2022-12-11T15:44:53;26.33;;;14.20;;
21243;SDS011;10780;50.942;4.028;2022-12-11T15:47:22;25.45;;;13.90;;
21243;SDS011;10780;50.942;4.028;2022-12-11T15:49:50;23.25;;;13.95;;
21243;SDS011;10780;50.942;4.028;2022-12-11T15:52:19;23.02;;;12.98;;
21243;SDS011;10780;50.942;4.028;2022-12-11T15:54:45;24.73;;;13.57;;
21243;SDS011;10780;50.942;4.028;2022-12-11T15:57:11;26.65;;;13.75;;
21243;SDS011;10780;50.942;4.028;2022-12-11T15:59:40;27.63;;;14.60;;
21243;SDS011;10780;50.942;4.028;2022-12-11T16:02:12;32.70;;;17.80;;
21243;SDS011;10780;50.942;4.028;2022-12-11T16:04:38;28.77;;;16.98;;
21243;SDS011;10780;50.942;4.028;2022-12-11T16:07:04;32.88;;;16.90;;